ESMT/HAD METAR and TAF weather

Enter ICAO airport designator
Station Type Date Time Source
ESMT METAR 2020/09/22 23:50 UTC NOAA

ESMT 222350Z AUTO 07004KT 2100 NCD 10/09 Q1005


Station Type Date Time Source
ESMT Decoded METAR 2020/09/22 23:50 UTC NOAA

Halmstad Swedish Air Force Base , Sweden (ESMT) 56-41N 012-50E
Sep 22, 2020 - 07:50 PM EDT / 2020.09.22 2350 UTC
Wind: from the ENE (070 degrees) at 5 MPH (4 KT):0
Visibility: 1 mile(s):0
Temperature: 50 F (10 C)
Dew Point: 48 F (9 C)
Relative Humidity: 93%
Pressure (altimeter): 29.68 in. Hg (1005 hPa)
ob: ESMT 222350Z AUTO 07004KT 2100 NCD 10/09 Q1005
cycle: 0

Station Type Date Time Source
ESMT TAF 2017/04/24 06:33 UTC NOAA

TAF TAF ESMT 240513Z 2406/2506 22018KT 9999 BKN018
TEMPO 2406/2413 22018G30KT 4000 RADZ BKN008
TEMPO 2413/2415 24020G30KT 4000 SHRA BKN014 SCT020CB

Example: see airport list